« 全部撮-3その2 南ぬ島石垣空港 2013/3/7 thu | トップページ | 定点 富山空港 2013/3/15 fri »

2013/03/15

全部撮-3その3 南ぬ島石垣空港 2013/3/7 thu

全部撮-3その2からつづき

全部撮-3も最終回です。何故-3かって・・ 全フライトの内3便は撮れていないってことで。当初は、南西塗装のJTA625到着でミッションコンプリートと計画したため-2のはずでした。が、画像整理の途中で一便撮り逃しと早合点して-3となっています。最終的には-2で予定とおりの結果で、なによりでした。

20130307_roig_261ja8597

JTA3501 RJOT-ROIG JA8597 B737-4Q3

ROIG 070700Z 21007KT 9999 FEW030 BKN060 23/15 Q1017

20130307_roig_262ja358k

ANA1776 ROIG-ROAH JA358K B737-5L9

20130307_roig_263ja67an

ANA1775 ROAH-ROIG JA67AN B737-881

20130307_roig_264ja62an

ANA1791 ROMY-ROIG JA62AN B737-881

20130307_roig_265ja8996

JTA84 ROIG-RJBB JA8996 B737-446

20130307_roig_266ja8999

20130307_roig_267ja8999

JTA619 ROAH-ROIG JA8999 B737-4Q3

ROIG 070800Z 21006KT 9999 FEW030 SCT080 22/14 Q1017

20130307_roig_268ja8597

JTA1620 ROIG-ROAH JA8597 B737-4Q3

20130307_roig_269ja307k

ANA1777 ROAH-ROIG JA307K B737-54K

20130307_roig_270ja67an

ANA1748 ROIG-RJBB JA67AN B737-881

20130307_roig_271ja8972

RAC705 ROAH-ROIG JA8972 DHC8-100

20130307_roig_272ja15an

20130307_roig_273ja15an

ANA1749 RJBB-ROIG JA15AN B737-781

20130307_roig_274ja62an

ANA118 ROIG-RJGG JA62AN B737-881

20130307_roig_275ja8940

JTA73 RJTT-ROIG JA8940 B737-4Q3

20130307_roig_276ja8935

RAC837 ROMY-ROIG JA8935 DHC8-100

20130307_roig_277ja8999

JTA622 ROIG-ROAH JA8999 B737-4Q3

20130307_roig_278ja8972

RAC745 ROIG-ROYN JA8972 DHC8-100

ROIG 070900Z 20004KT 170V230 9999 FEW030 BKN080 22/15 Q1017

20130307_roig_279ja307k

ANA1780 ROIG-ROAH JA307K B737-54K

20130307_roig_280ja302k

ANA1779 ROAH-ROIG JA302K B737-54K

20130307_roig_281ja8938

JTA621 ROAH-ROIG JA8938 B737-4Q3

20130307_roig_282ja15an

ANA1750 ROIG-RJBB JA15AN B737-781

20130307_roig_283ja8570

JA8570 F900 JCG

20130307_roig_284ja8940

JTA626 ROIG-ROAH JA8940 B737-4Q3

20130307_roig_285b22811

本日レアな進入。花蓮からの復興航空は、ILS04サークリング22で、隣の御人は、狂喜乱舞・・・ おまけにATRです。

20130307_roig_286ja8935

RAC838 ROIG-ROMY JA8935 DHC8-100

20130307_roig_287b22811

TNA6812 RCYU-ROIG B-22811 ATR72-212A

whitewing681さんの動画

20130307_roig_288ja8570

JA8570 F900 JCG

20130307_roig_289b22811

TNA6812 RCYU-ROIG B-22811 ATR72-212A

20130307_roig_290ja302k

ANA1782 ROIG-ROAH JA302K B737-54K

ROIG 071000Z 19004KT 9999 FEW030 BKN080 21/15 Q1017

20130307_roig_291ja8972

RAC746 ROYN-ROIG JA8972 DHC8-100

20130307_roig_292ja8938

JTA76 ROIG-RJTT JA8938 B737-4Q3

20130307_roig_293b22811

RAC708 ROIG-ROAH JA8972 DHC8-100

20130307_roig_294b22811

TNA6811 ROIG-RCYU B-22811 ATR72-212A

ROIG 071100Z VRB02KT 9999 FEW030 SCT080 20/15 Q1018

20130307_roig_295ja8999

JTA625 ROAH-ROIG JA8999 B737-4Q3

欠 JTA628 ROIG-ROAH JA8999 B737-4Q3

欠 ANA1781 ROAH-ROIG JA307K B737-54K

|

« 全部撮-3その2 南ぬ島石垣空港 2013/3/7 thu | トップページ | 定点 富山空港 2013/3/15 fri »

石垣空港」カテゴリの記事

コメント

コメントを書く



(ウェブ上には掲載しません)


コメントは記事投稿者が公開するまで表示されません。



トラックバック


この記事へのトラックバック一覧です: 全部撮-3その3 南ぬ島石垣空港 2013/3/7 thu:

« 全部撮-3その2 南ぬ島石垣空港 2013/3/7 thu | トップページ | 定点 富山空港 2013/3/15 fri »